Time;durP1;ratioP1;P1;durP2;ratioP2;P2;SDS_P1;SDS_P2;PMS_P1;PMS_P2;Temp;Humidity;BMP_temperature;BMP_pressure;BME280_temperature;BME280_humidity;BME280_pressure;Samples;Min_cycle;Max_cycle;Signal;HPM_P1;HPM_P2
2021/06/27 00:01:22;;;;;;;19.80;15.98;;;20.00;72.20;;;;;;5097117;28;20028;-88
2021/06/27 00:03:49;;;;;;;24.63;20.10;;;19.90;72.30;;;;;;5095434;28;20031;-88
2021/06/27 00:06:14;;;;;;;17.27;14.82;;;20.00;72.60;;;;;;5098306;28;20093;-88
2021/06/27 00:08:44;;;;;;;12.55;8.80;;;19.90;72.00;;;;;;5098348;28;20036;-87
2021/06/27 00:11:11;;;;;;;15.90;10.23;;;19.90;71.80;;;;;;5099528;28;20055;-87
2021/06/27 00:13:40;;;;;;;15.90;13.35;;;19.80;72.00;;;;;;5095045;28;20025;-86
2021/06/27 00:16:07;;;;;;;11.05;8.10;;;19.80;72.50;;;;;;5099590;28;20069;-87
2021/06/27 00:18:33;;;;;;;13.60;11.07;;;19.80;72.20;;;;;;5100203;28;20495;-88
2021/06/27 00:21:02;;;;;;;14.73;10.45;;;19.80;73.00;;;;;;5099882;28;20031;-90
2021/06/27 00:23:32;;;;;;;18.30;13.27;;;19.70;72.80;;;;;;5100273;28;20044;-85
2021/06/27 00:26:01;;;;;;;18.17;15.23;;;19.70;73.20;;;;;;5105101;28;20020;-88
2021/06/27 00:28:28;;;;;;;18.05;14.73;;;19.70;73.70;;;;;;5100580;28;20032;-86
2021/06/27 00:30:57;;;;;;;15.85;12.40;;;19.70;73.30;;;;;;5102231;28;20085;-87
2021/06/27 00:33:23;;;;;;;15.40;10.43;;;19.60;73.10;;;;;;5100740;28;20127;-88
2021/06/27 00:35:50;;;;;;;24.73;19.90;;;19.60;72.90;;;;;;5111000;28;20054;-86
2021/06/27 00:38:16;;;;;;;22.42;18.75;;;19.60;73.50;;;;;;5114169;28;20000;-88
2021/06/27 00:40:43;;;;;;;22.45;18.73;;;19.60;73.10;;;;;;5111766;28;20102;-89
2021/06/27 00:43:09;;;;;;;17.33;13.70;;;19.70;74.20;;;;;;5099218;28;20032;-87
2021/06/27 00:45:35;;;;;;;12.93;10.32;;;19.60;73.80;;;;;;5095851;28;20024;-86
2021/06/27 00:48:07;;;;;;;26.30;22.10;;;19.60;73.00;;;;;;5095817;28;20169;-85
2021/06/27 00:50:38;;;;;;;16.33;11.88;;;19.60;74.00;;;;;;5094707;28;20492;-86
2021/06/27 00:53:08;;;;;;;27.63;19.92;;;19.60;73.30;;;;;;5096851;28;20487;-84
2021/06/27 00:55:35;;;;;;;21.02;15.80;;;19.60;74.50;;;;;;5097010;28;20028;-89
2021/06/27 00:58:03;;;;;;;11.30;8.95;;;19.60;74.30;;;;;;5097387;28;20361;-88
2021/06/27 01:00:36;;;;;;;10.73;7.70;;;19.50;73.20;;;;;;5102742;28;20047;-85
2021/06/27 01:03:05;;;;;;;22.40;15.88;;;19.50;73.00;;;;;;5100481;28;20051;-87
2021/06/27 01:05:38;;;;;;;22.05;18.52;;;19.50;74.30;;;;;;5096222;28;20023;-88
2021/06/27 01:08:10;;;;;;;25.30;21.50;;;19.50;74.00;;;;;;5094898;28;20348;-86
2021/06/27 01:10:36;;;;;;;15.57;10.93;;;19.50;74.40;;;;;;5094409;28;20016;-87
2021/06/27 01:13:03;;;;;;;15.73;11.85;;;19.50;73.90;;;;;;5095797;28;20114;-86
2021/06/27 01:15:29;;;;;;;18.27;12.70;;;19.50;73.90;;;;;;5094501;28;20464;-85
2021/06/27 01:17:56;;;;;;;14.60;10.07;;;19.50;74.10;;;;;;5093741;28;20028;-85
2021/06/27 01:20:25;;;;;;;22.35;18.60;;;19.50;73.70;;;;;;5094176;28;20020;-84
2021/06/27 01:22:51;;;;;;;12.13;8.75;;;19.50;73.90;;;;;;5093644;28;20027;-84
2021/06/27 01:25:24;;;;;;;13.32;10.63;;;19.50;73.10;;;;;;5096966;28;20073;-82
2021/06/27 01:27:50;;;;;;;25.02;19.92;;;19.40;74.00;;;;;;5093986;28;20395;-86
2021/06/27 01:30:24;;;;;;;26.38;22.27;;;19.40;74.00;;;;;;5096045;28;20028;-85
2021/06/27 01:32:53;;;;;;;18.17;14.77;;;19.40;74.30;;;;;;5096191;28;20024;-85
2021/06/27 01:35:25;;;;;;;21.75;16.77;;;19.30;74.40;;;;;;5096673;28;20051;-84
2021/06/27 01:37:52;;;;;;;32.85;27.00;;;19.30;75.60;;;;;;5103360;28;20087;-84
2021/06/27 01:40:20;;;;;;;16.05;12.70;;;19.30;76.50;;;;;;5094224;28;20069;-85
2021/06/27 01:42:46;;;;;;;20.95;16.27;;;19.20;74.80;;;;;;5095028;28;20434;-87
2021/06/27 01:45:24;;;;;;;20.73;15.23;;;19.20;75.60;;;;;;5095152;28;20030;-85
2021/06/27 01:47:55;;;;;;;19.98;13.05;;;19.20;75.30;;;;;;5095448;28;20140;-86
2021/06/27 01:50:21;;;;;;;16.45;12.82;;;19.10;74.90;;;;;;5095293;28;20032;-88
2021/06/27 01:52:47;;;;;;;23.95;16.25;;;19.10;75.30;;;;;;5097912;28;20019;-89
2021/06/27 01:55:13;;;;;;;43.92;35.55;;;19.10;75.90;;;;;;5097713;28;20024;-85
2021/06/27 01:57:46;;;;;;;26.67;21.60;;;19.10;77.20;;;;;;5095346;28;20032;-89
2021/06/27 02:00:12;;;;;;;14.18;8.93;;;19.10;76.60;;;;;;5096455;28;20036;-88
2021/06/27 02:02:38;;;;;;;26.58;20.90;;;19.10;74.70;;;;;;5095167;28;20070;-86
2021/06/27 02:05:06;;;;;;;30.05;22.85;;;19.10;75.80;;;;;;5093621;28;20021;-85
2021/06/27 02:07:32;;;;;;;16.50;10.90;;;19.00;76.00;;;;;;5093523;28;20115;-85
2021/06/27 02:09:58;;;;;;;25.50;21.25;;;19.00;75.20;;;;;;5093852;28;20039;-84
2021/06/27 02:12:23;;;;;;;24.15;19.60;;;19.00;77.00;;;;;;5092897;28;20024;-86
2021/06/27 02:14:52;;;;;;;18.45;13.55;;;19.00;77.60;;;;;;5106607;28;20013;-89
2021/06/27 02:17:20;;;;;;;37.45;30.13;;;19.00;76.50;;;;;;5096472;28;20495;-89
2021/06/27 02:19:54;;;;;;;25.73;18.40;;;18.90;77.20;;;;;;5094951;28;20063;-88
2021/06/27 02:22:21;;;;;;;37.40;30.05;;;18.90;77.00;;;;;;5095093;28;20369;-87
2021/06/27 02:24:46;;;;;;;21.95;15.82;;;18.90;78.60;;;;;;5098495;28;20035;-88
2021/06/27 02:27:13;;;;;;;21.83;16.77;;;18.90;77.10;;;;;;5099447;28;20032;-88
2021/06/27 02:29:38;;;;;;;30.00;24.90;;;18.80;76.50;;;;;;5098475;28;20034;-87
2021/06/27 02:32:05;;;;;;;29.60;22.25;;;18.80;77.30;;;;;;5099173;28;20024;-87
2021/06/27 02:34:31;;;;;;;24.30;17.92;;;18.80;76.50;;;;;;5098516;28;20030;-87
2021/06/27 02:36:57;;;;;;;12.93;10.13;;;18.80;76.60;;;;;;5098642;28;20055;-87
2021/06/27 02:39:23;;;;;;;25.13;18.13;;;18.80;75.80;;;;;;5105269;28;20102;-86
2021/06/27 02:41:49;;;;;;;28.55;22.77;;;18.80;77.40;;;;;;5119657;28;20020;-87
2021/06/27 02:44:15;;;;;;;18.52;14.48;;;18.80;76.80;;;;;;5110865;28;20113;-89
2021/06/27 02:46:41;;;;;;;17.33;12.68;;;18.80;76.80;;;;;;5105393;28;20036;-87
2021/06/27 02:49:07;;;;;;;22.98;17.75;;;18.80;76.00;;;;;;5103316;28;20055;-89
2021/06/27 02:51:34;;;;;;;39.50;29.23;;;18.80;76.70;;;;;;5102711;28;20033;-86
2021/06/27 02:54:00;;;;;;;30.10;22.27;;;18.80;76.50;;;;;;5103912;28;20072;-89
2021/06/27 02:56:26;;;;;;;22.52;17.98;;;18.80;77.80;;;;;;5098821;28;20052;-88
2021/06/27 02:58:52;;;;;;;31.60;24.63;;;18.80;77.70;;;;;;5098944;28;20456;-87
2021/06/27 03:01:20;;;;;;;23.05;18.73;;;18.70;77.80;;;;;;5099327;28;20442;-89
2021/06/27 03:03:51;;;;;;;29.02;22.88;;;18.70;77.20;;;;;;5099169;28;20452;-88
2021/06/27 03:06:18;;;;;;;11.52;8.35;;;18.70;77.50;;;;;;5099565;28;20129;-89
2021/06/27 03:08:44;;;;;;;23.05;20.55;;;18.70;76.00;;;;;;5097109;28;20031;-85
2021/06/27 03:11:10;;;;;;;13.68;9.77;;;18.70;75.90;;;;;;5096418;28;20020;-86
2021/06/27 03:13:38;;;;;;;23.83;12.32;;;18.70;76.40;;;;;;5096309;28;20426;-86
2021/06/27 03:16:05;;;;;;;33.25;27.13;;;18.70;77.10;;;;;;5097720;28;20065;-87
2021/06/27 03:18:31;;;;;;;25.52;21.52;;;18.60;77.00;;;;;;5095309;28;20055;-86
2021/06/27 03:20:57;;;;;;;19.45;14.23;;;18.60;78.00;;;;;;5095151;28;20020;-86
2021/06/27 03:23:23;;;;;;;31.60;25.27;;;18.60;77.40;;;;;;5095334;28;20447;-84
2021/06/27 03:25:49;;;;;;;22.27;15.85;;;18.50;77.20;;;;;;5096182;28;20021;-84
2021/06/27 03:28:15;;;;;;;26.88;20.77;;;18.50;78.30;;;;;;5107490;28;20043;-85
2021/06/27 03:30:40;;;;;;;26.17;19.52;;;18.50;78.40;;;;;;5095673;28;20498;-85
2021/06/27 03:33:06;;;;;;;9.63;7.10;;;18.50;76.80;;;;;;5093995;28;20028;-85
2021/06/27 03:35:32;;;;;;;20.95;16.48;;;18.50;76.20;;;;;;5094808;28;20502;-87
2021/06/27 03:40:30;;;;;;;18.88;14.18;;;18.50;77.70;;;;;;5098293;28;20028;-89
2021/06/27 03:42:58;;;;;;;31.15;25.52;;;18.50;77.60;;;;;;5096793;28;20456;-89
2021/06/27 03:45:24;;;;;;;30.58;22.65;;;18.50;78.40;;;;;;5097466;28;20028;-89
2021/06/27 03:47:50;;;;;;;24.83;20.08;;;18.50;77.90;;;;;;5095706;28;20255;-86
2021/06/27 03:50:18;;;;;;;26.67;20.80;;;18.60;78.10;;;;;;5095292;28;20024;-86
2021/06/27 03:52:44;;;;;;;17.02;12.45;;;18.60;77.60;;;;;;5094464;28;20023;-85
2021/06/27 03:55:10;;;;;;;17.17;13.02;;;18.60;77.10;;;;;;5096220;28;20023;-88
2021/06/27 03:57:36;;;;;;;30.88;25.08;;;18.60;76.90;;;;;;5095849;28;20349;-86
2021/06/27 04:00:06;;;;;;;17.25;12.65;;;18.60;77.20;;;;;;5097162;28;20028;-85
2021/06/27 04:02:31;;;;;;;25.45;17.95;;;18.70;76.70;;;;;;5094769;28;20020;-86
2021/06/27 04:04:57;;;;;;;24.65;19.40;;;18.70;77.30;;;;;;5105457;28;20024;-87
2021/06/27 04:07:23;;;;;;;37.10;29.15;;;18.70;76.20;;;;;;5101710;28;20036;-90
2021/06/27 04:09:48;;;;;;;18.98;15.30;;;18.80;77.00;;;;;;5096416;28;20457;-90
2021/06/27 04:12:14;;;;;;;23.90;18.23;;;18.80;76.80;;;;;;5097331;28;20024;-89
2021/06/27 04:14:40;;;;;;;27.40;22.00;;;18.90;76.90;;;;;;5098187;28;20039;-89
2021/06/27 04:17:06;;;;;;;28.80;21.88;;;18.80;78.10;;;;;;5097586;28;20035;-90
2021/06/27 04:19:32;;;;;;;28.35;21.23;;;18.90;76.70;;;;;;5096645;28;20052;-90
2021/06/27 04:21:58;;;;;;;19.95;15.23;;;18.90;77.20;;;;;;5099579;28;20115;-90
2021/06/27 04:24:23;;;;;;;23.20;17.02;;;19.00;76.70;;;;;;5098520;28;20055;-89
2021/06/27 04:26:49;;;;;;;26.60;22.17;;;19.00;76.90;;;;;;5097596;28;20036;-90
2021/06/27 04:29:16;;;;;;;25.67;19.25;;;19.10;77.00;;;;;;5097369;28;20032;-91
2021/06/27 04:31:43;;;;;;;28.40;22.90;;;19.10;77.00;;;;;;5097107;28;20028;-91
2021/06/27 04:34:10;;;;;;;22.63;18.88;;;19.20;76.80;;;;;;5096873;28;20396;-91
2021/06/27 04:36:36;;;;;;;31.50;25.85;;;19.20;76.40;;;;;;5098698;28;20031;-90
2021/06/27 04:39:02;;;;;;;20.20;16.10;;;19.30;76.80;;;;;;5096738;28;20392;-90
2021/06/27 04:41:28;;;;;;;27.83;23.55;;;19.40;76.40;;;;;;5109687;28;20430;-90
2021/06/27 04:43:54;;;;;;;19.27;16.35;;;19.40;76.70;;;;;;5115633;28;20016;-90
2021/06/27 04:46:20;;;;;;;23.63;15.77;;;19.50;75.30;;;;;;5116023;28;20092;-91
2021/06/27 04:48:45;;;;;;;30.35;24.85;;;19.60;74.70;;;;;;5117064;28;20012;-90
2021/06/27 04:51:11;;;;;;;27.23;20.20;;;19.60;74.80;;;;;;5101840;28;20384;-89
2021/06/27 04:53:37;;;;;;;30.77;25.25;;;19.70;75.30;;;;;;5095603;28;20064;-91
2021/06/27 04:56:03;;;;;;;19.65;15.35;;;19.80;74.90;;;;;;5094367;28;20448;-86
2021/06/27 04:58:29;;;;;;;18.30;14.85;;;19.80;73.90;;;;;;5094159;28;20030;-89
2021/06/27 05:00:54;;;;;;;19.65;14.30;;;19.90;74.10;;;;;;5095327;28;20378;-87
2021/06/27 05:03:21;;;;;;;18.63;12.57;;;20.00;73.80;;;;;;5096486;28;20050;-88
2021/06/27 05:05:46;;;;;;;25.92;21.83;;;20.00;73.20;;;;;;5101677;28;20039;-89
2021/06/27 05:08:12;;;;;;;23.10;19.23;;;20.10;73.80;;;;;;5104674;28;20040;-87
2021/06/27 05:10:38;;;;;;;21.85;18.05;;;20.10;72.90;;;;;;5098038;28;20058;-87
2021/06/27 05:13:04;;;;;;;21.15;16.95;;;20.10;73.70;;;;;;5096330;28;20456;-89
2021/06/27 05:15:30;;;;;;;17.95;12.90;;;20.10;72.40;;;;;;5095492;28;20020;-88
2021/06/27 05:17:57;;;;;;;18.80;14.63;;;20.10;72.90;;;;;;5103596;28;20012;-90
2021/06/27 05:20:24;;;;;;;15.82;11.88;;;20.10;73.50;;;;;;5114324;28;20114;-90
2021/06/27 05:22:51;;;;;;;12.68;10.30;;;20.10;73.60;;;;;;5101210;28;20032;-88
2021/06/27 05:25:17;;;;;;;23.20;18.80;;;20.10;72.30;;;;;;5094732;28;20057;-88
2021/06/27 05:27:43;;;;;;;21.40;14.82;;;20.10;72.90;;;;;;5093507;28;20055;-88
2021/06/27 05:30:10;;;;;;;24.88;20.42;;;20.10;72.60;;;;;;5094315;28;20027;-89
2021/06/27 05:32:36;;;;;;;23.17;17.13;;;20.20;73.30;;;;;;5094708;28;20020;-87
2021/06/27 05:35:04;;;;;;;14.07;9.82;;;20.20;73.10;;;;;;5094832;28;20024;-87
2021/06/27 05:37:30;;;;;;;22.42;17.50;;;20.30;71.90;;;;;;5096175;28;20415;-86
2021/06/27 05:39:59;;;;;;;20.90;16.48;;;20.30;72.70;;;;;;5095030;28;20035;-87
2021/06/27 05:42:25;;;;;;;15.02;11.75;;;20.30;72.50;;;;;;5094310;28;20020;-86
2021/06/27 05:44:50;;;;;;;15.73;12.57;;;20.40;72.70;;;;;;5094846;28;20016;-87
2021/06/27 05:47:16;;;;;;;17.52;12.85;;;20.40;71.80;;;;;;5095118;28;20448;-87
2021/06/27 05:49:47;;;;;;;17.05;14.23;;;20.40;71.30;;;;;;5094876;28;20372;-89
2021/06/27 05:52:13;;;;;;;18.05;13.75;;;20.40;72.30;;;;;;5095458;28;20032;-88
2021/06/27 05:54:39;;;;;;;21.10;17.77;;;20.50;72.50;;;;;;5101322;28;20083;-83
2021/06/27 05:57:08;;;;;;;20.48;17.20;;;20.50;72.20;;;;;;5102152;28;20024;-86
2021/06/27 05:59:35;;;;;;;15.70;13.00;;;20.50;72.40;;;;;;5098826;28;20474;-90
2021/06/27 06:02:04;;;;;;;22.42;18.55;;;20.60;71.40;;;;;;5099957;28;20028;-90
2021/06/27 06:04:32;;;;;;;23.55;18.23;;;20.70;71.70;;;;;;5101318;28;20095;-89
2021/06/27 06:07:01;;;;;;;19.08;13.73;;;20.70;72.20;;;;;;5100255;28;20014;-90
2021/06/27 06:09:28;;;;;;;20.33;13.77;;;20.70;71.60;;;;;;5100481;28;20377;-89
2021/06/27 06:12:02;;;;;;;16.42;11.85;;;20.70;71.90;;;;;;5099048;28;20024;-89
2021/06/27 06:14:32;;;;;;;18.98;15.00;;;20.80;71.60;;;;;;5101241;28;20531;-90
2021/06/27 06:16:59;;;;;;;15.32;12.65;;;20.90;72.10;;;;;;5103088;28;20538;-93
2021/06/27 06:19:29;;;;;;;18.48;11.95;;;20.90;71.50;;;;;;5102924;28;20074;-92
2021/06/27 06:22:02;;;;;;;19.45;16.38;;;21.00;70.50;;;;;;5102354;28;20047;-91
2021/06/27 06:24:27;;;;;;;17.48;14.50;;;21.00;71.10;;;;;;5103285;28;20031;-91
2021/06/27 06:26:53;;;;;;;21.33;16.13;;;20.90;71.60;;;;;;5100412;28;20032;-91
2021/06/27 06:29:19;;;;;;;18.15;14.20;;;20.90;71.70;;;;;;5099300;28;20373;-88
2021/06/27 06:31:45;;;;;;;21.55;15.82;;;21.00;71.20;;;;;;5108600;28;20038;-87
2021/06/27 06:34:12;;;;;;;15.13;12.55;;;21.00;71.00;;;;;;5104458;28;20473;-89
2021/06/27 06:36:48;;;;;;;15.25;11.15;;;21.00;71.10;;;;;;5093615;28;20032;-89
2021/06/27 06:39:18;;;;;;;17.00;13.25;;;21.00;71.10;;;;;;5097132;28;20110;-89
2021/06/27 06:41:46;;;;;;;19.70;15.57;;;21.10;70.30;;;;;;5089724;28;20025;-90
2021/06/27 06:44:11;;;;;;;14.98;11.32;;;21.20;70.40;;;;;;5089614;28;20045;-87
2021/06/27 06:46:40;;;;;;;16.92;11.48;;;21.20;70.10;;;;;;5103701;28;20028;-91
2021/06/27 06:49:06;;;;;;;14.70;11.15;;;21.30;69.80;;;;;;5113903;28;20040;-88
2021/06/27 06:51:32;;;;;;;10.70;8.13;;;21.50;69.00;;;;;;5119087;28;20038;-88
2021/06/27 06:53:58;;;;;;;19.98;15.38;;;21.70;68.70;;;;;;5116622;28;20028;-88
2021/06/27 06:56:24;;;;;;;18.95;14.60;;;21.80;69.30;;;;;;5109395;28;20444;-89
2021/06/27 06:58:50;;;;;;;24.35;19.45;;;21.90;68.90;;;;;;5113671;28;20065;-89
2021/06/27 07:01:17;;;;;;;30.63;25.02;;;22.00;68.50;;;;;;5102909;28;20024;-88
2021/06/27 07:03:43;;;;;;;19.08;15.63;;;22.10;69.20;;;;;;5099576;28;20050;-91
2021/06/27 07:06:09;;;;;;;18.98;15.45;;;22.20;68.00;;;;;;5103643;28;20024;-89
2021/06/27 07:08:35;;;;;;;17.25;14.02;;;22.30;68.80;;;;;;5101683;28;20052;-80
2021/06/27 07:11:01;;;;;;;14.07;9.35;;;22.40;67.90;;;;;;5096421;28;20066;-82
2021/06/27 07:13:27;;;;;;;13.73;9.85;;;22.50;66.30;;;;;;5094155;28;20024;-81
2021/06/27 07:15:53;;;;;;;14.27;11.10;;;22.80;65.70;;;;;;5093708;28;20028;-80
2021/06/27 07:18:19;;;;;;;12.52;8.40;;;23.00;64.90;;;;;;5094453;28;20063;-79
2021/06/27 07:20:44;;;;;;;11.52;8.30;;;23.10;64.00;;;;;;5095864;28;20042;-81
2021/06/27 07:23:10;;;;;;;15.25;12.43;;;23.20;63.70;;;;;;5093546;28;20029;-79
2021/06/27 07:25:36;;;;;;;10.93;8.55;;;23.40;64.30;;;;;;5093920;28;20024;-79
2021/06/27 07:28:02;;;;;;;14.52;11.38;;;23.40;64.00;;;;;;5093431;28;20036;-80
2021/06/27 07:30:27;;;;;;;16.55;14.13;;;23.40;64.10;;;;;;5094311;28;20020;-79
2021/06/27 07:32:53;;;;;;;16.13;14.20;;;23.30;64.60;;;;;;5094310;28;20033;-81
2021/06/27 07:35:18;;;;;;;14.68;12.05;;;23.20;64.60;;;;;;5094749;28;20031;-80
2021/06/27 07:37:44;;;;;;;15.20;13.27;;;23.20;64.90;;;;;;5094562;28;20012;-81
2021/06/27 07:40:11;;;;;;;14.25;10.02;;;23.30;65.30;;;;;;5095129;28;20035;-79
2021/06/27 07:42:36;;;;;;;13.32;11.32;;;23.20;64.80;;;;;;5094508;28;20016;-80
2021/06/27 07:45:03;;;;;;;15.68;12.85;;;23.30;64.70;;;;;;5103090;28;20050;-80
2021/06/27 07:47:29;;;;;;;15.75;12.93;;;23.40;64.40;;;;;;5095075;28;20059;-80
2021/06/27 07:49:55;;;;;;;16.10;13.18;;;23.40;64.90;;;;;;5094201;28;20023;-82
2021/06/27 07:52:20;;;;;;;14.02;11.32;;;23.40;64.90;;;;;;5093785;28;20081;-79
2021/06/27 07:54:46;;;;;;;17.55;13.88;;;23.40;64.60;;;;;;5093985;28;20054;-81
2021/06/27 07:57:11;;;;;;;13.15;10.30;;;23.50;64.60;;;;;;5093235;28;20023;-80
2021/06/27 07:59:37;;;;;;;14.27;9.68;;;23.50;63.80;;;;;;5093462;28;20069;-80
2021/06/27 08:02:03;;;;;;;10.82;7.95;;;23.60;63.80;;;;;;5092898;28;20028;-81
2021/06/27 08:04:29;;;;;;;11.52;7.65;;;23.70;63.20;;;;;;5093238;28;20455;-80
2021/06/27 08:06:55;;;;;;;14.45;11.45;;;23.80;62.90;;;;;;5094825;28;20028;-81
2021/06/27 08:09:20;;;;;;;15.32;13.07;;;23.90;63.10;;;;;;5091792;28;20020;-80
2021/06/27 08:11:46;;;;;;;13.65;10.73;;;24.00;63.60;;;;;;5091919;28;20021;-82
2021/06/27 08:14:12;;;;;;;13.60;11.85;;;24.00;63.60;;;;;;5093013;28;20135;-79
2021/06/27 08:16:38;;;;;;;12.85;11.20;;;24.20;63.90;;;;;;5092978;28;20085;-81
2021/06/27 08:19:06;;;;;;;15.55;13.85;;;24.20;63.40;;;;;;5093580;28;20059;-81
2021/06/27 08:21:35;;;;;;;12.90;11.07;;;24.30;63.10;;;;;;5102667;28;20519;-80
2021/06/27 08:24:01;;;;;;;13.07;11.40;;;24.40;63.10;;;;;;5094276;28;20065;-78
2021/06/27 08:26:27;;;;;;;12.07;8.80;;;24.60;63.00;;;;;;5094335;28;20122;-79
2021/06/27 08:28:53;;;;;;;14.30;12.15;;;24.70;62.10;;;;;;5094280;28;20051;-78
2021/06/27 08:31:21;;;;;;;12.88;10.73;;;24.70;62.20;;;;;;5093248;28;20084;-79
2021/06/27 08:33:47;;;;;;;15.57;13.25;;;24.80;62.20;;;;;;5090047;28;20023;-81
2021/06/27 08:36:13;;;;;;;11.93;9.80;;;24.90;62.10;;;;;;5093839;28;20100;-83
2021/06/27 08:38:39;;;;;;;10.13;7.88;;;24.90;61.50;;;;;;5094535;28;20024;-87
2021/06/27 08:41:04;;;;;;;10.27;7.78;;;25.00;61.30;;;;;;5094407;28;20030;-85
2021/06/27 08:43:32;;;;;;;15.82;13.10;;;25.20;60.80;;;;;;5093834;28;20050;-85
2021/06/27 08:45:59;;;;;;;8.38;7.03;;;25.50;60.70;;;;;;5098128;28;20024;-83
2021/06/27 08:48:26;;;;;;;12.15;10.15;;;25.60;60.00;;;;;;5103554;28;20064;-82
2021/06/27 08:50:53;;;;;;;12.23;9.98;;;25.80;59.80;;;;;;5099063;28;20028;-82
2021/06/27 08:53:20;;;;;;;14.88;11.93;;;25.80;60.40;;;;;;5105657;28;20039;-82
2021/06/27 08:55:46;;;;;;;10.45;8.75;;;25.80;59.70;;;;;;5110534;28;20028;-84
2021/06/27 08:58:12;;;;;;;11.02;8.57;;;25.80;59.70;;;;;;5106078;28;20050;-84
2021/06/27 09:00:38;;;;;;;10.25;8.30;;;25.80;59.70;;;;;;5094673;28;20078;-85
2021/06/27 09:03:07;;;;;;;10.93;8.65;;;25.90;59.90;;;;;;5095413;28;20123;-85
2021/06/27 09:05:34;;;;;;;10.40;8.07;;;25.90;59.90;;;;;;5101867;28;20089;-86
2021/06/27 09:08:16;;;;;;;8.95;7.38;;;25.90;59.90;;;;;;5098000;28;20055;-83
2021/06/27 09:10:43;;;;;;;12.23;10.85;;;25.90;59.80;;;;;;5093673;28;20066;-83
2021/06/27 09:13:09;;;;;;;12.88;9.15;;;25.90;59.80;;;;;;5092461;28;20016;-83
2021/06/27 09:15:43;;;;;;;9.10;7.03;;;25.90;60.00;;;;;;5092961;28;20099;-84
2021/06/27 09:18:10;;;;;;;9.98;7.25;;;25.80;60.10;;;;;;5093014;28;20032;-82
2021/06/27 09:20:37;;;;;;;12.45;9.98;;;25.90;60.10;;;;;;5092916;28;20048;-87
2021/06/27 09:23:07;;;;;;;9.80;8.20;;;26.00;60.10;;;;;;5102258;28;20020;-89
2021/06/27 09:25:33;;;;;;;9.32;7.55;;;26.10;59.80;;;;;;5095986;28;20182;-89
2021/06/27 09:28:11;;;;;;;9.88;8.43;;;26.10;60.00;;;;;;5093608;28;20099;-91
2021/06/27 09:30:36;;;;;;;9.05;8.10;;;26.20;59.80;;;;;;5095830;28;20023;-91
2021/06/27 09:33:05;;;;;;;8.55;7.38;;;26.40;59.80;;;;;;5103889;28;20030;-89
2021/06/27 09:35:39;;;;;;;10.45;8.07;;;26.50;59.50;;;;;;5113539;28;20047;-89
2021/06/27 09:38:20;;;;;;;9.45;7.75;;;26.70;59.30;;;;;;5100909;28;20120;-89
2021/06/27 09:40:46;;;;;;;10.07;8.30;;;26.90;59.10;;;;;;5103006;28;20111;-88
2021/06/27 09:43:12;;;;;;;9.27;7.75;;;27.10;58.70;;;;;;5104186;28;20008;-91
2021/06/27 09:45:50;;;;;;;8.75;7.07;;;27.30;58.30;;;;;;5106839;28;20020;-91
2021/06/27 09:48:16;;;;;;;9.00;7.30;;;27.40;58.00;;;;;;5104943;28;20035;-89
2021/06/27 09:50:43;;;;;;;10.35;7.90;;;27.50;57.80;;;;;;5103296;28;20024;-91
2021/06/27 09:53:38;;;;;;;9.77;7.28;;;27.50;57.70;;;;;;5103858;28;20122;-89
2021/06/27 09:56:07;;;;;;;8.77;6.53;;;27.60;57.70;;;;;;5102609;28;20020;-90
2021/06/27 09:58:33;;;;;;;7.13;5.85;;;27.70;57.50;;;;;;5103874;28;20081;-91
2021/06/27 10:00:59;;;;;;;7.25;6.15;;;27.70;57.60;;;;;;5103607;28;20020;-89
2021/06/27 10:03:27;;;;;;;9.02;7.35;;;27.80;57.60;;;;;;5103473;28;20028;-86
2021/06/27 10:06:04;;;;;;;9.68;6.53;;;27.80;57.50;;;;;;5103116;28;20020;-87
2021/06/27 10:08:31;;;;;;;9.27;6.82;;;27.70;57.40;;;;;;5103901;28;20011;-89
2021/06/27 10:11:14;;;;;;;8.95;7.63;;;27.70;58.40;;;;;;5108771;28;20024;-89
2021/06/27 10:13:41;;;;;;;8.10;6.82;;;27.60;58.00;;;;;;5104567;28;20024;-88
2021/06/27 10:16:07;;;;;;;8.10;6.47;;;27.70;58.10;;;;;;5102462;28;20154;-88
2021/06/27 10:18:34;;;;;;;7.97;6.70;;;27.90;57.90;;;;;;5105473;28;20020;-83
2021/06/27 10:21:01;;;;;;;8.73;7.30;;;27.90;57.40;;;;;;5109998;28;20057;-87
2021/06/27 10:23:27;;;;;;;9.80;6.88;;;28.00;56.60;;;;;;5109569;28;20024;-86
2021/06/27 10:25:53;;;;;;;8.63;6.40;;;27.90;57.40;;;;;;5105003;28;20028;-87
2021/06/27 10:28:19;;;;;;;7.68;5.88;;;27.70;58.20;;;;;;5112104;28;20040;-86
2021/06/27 10:30:45;;;;;;;9.13;7.35;;;27.80;58.20;;;;;;5116700;28;20016;-87
2021/06/27 10:33:11;;;;;;;8.70;6.10;;;27.80;57.80;;;;;;5101467;28;20020;-86
2021/06/27 10:35:38;;;;;;;7.85;6.25;;;27.80;57.20;;;;;;5105606;28;20418;-89
2021/06/27 10:38:06;;;;;;;8.40;6.90;;;27.70;58.60;;;;;;5119464;28;20020;-88
2021/06/27 10:40:52;;;;;;;8.57;6.47;;;27.80;58.20;;;;;;5118646;28;20047;-88
2021/06/27 10:43:19;;;;;;;8.48;6.63;;;27.70;58.50;;;;;;5100683;28;20016;-89
2021/06/27 10:45:47;;;;;;;7.68;6.38;;;27.60;57.10;;;;;;5098014;28;20031;-89
2021/06/27 10:48:31;;;;;;;8.73;6.85;;;27.50;58.30;;;;;;5105595;28;20192;-89
2021/06/27 10:50:57;;;;;;;7.03;5.95;;;27.40;57.30;;;;;;5098389;28;20162;-86
2021/06/27 10:53:23;;;;;;;7.70;6.28;;;27.40;59.60;;;;;;5097151;28;20048;-87
2021/06/27 10:55:49;;;;;;;8.43;6.85;;;27.40;58.40;;;;;;5100195;28;20061;-90
2021/06/27 10:58:16;;;;;;;7.60;6.47;;;27.40;59.00;;;;;;5112647;28;20028;-83
2021/06/27 11:00:54;;;;;;;7.13;5.57;;;27.50;58.90;;;;;;5116080;28;20076;-87
2021/06/27 11:03:30;;;;;;;8.73;6.07;;;27.60;58.90;;;;;;5100819;28;20028;-89
2021/06/27 11:06:01;;;;;;;7.85;6.15;;;27.70;59.00;;;;;;5099731;28;20484;-89
2021/06/27 11:08:37;;;;;;;7.20;5.93;;;27.70;58.80;;;;;;5099130;28;20058;-89
2021/06/27 11:11:06;;;;;;;7.35;6.07;;;27.70;58.80;;;;;;5096537;28;20028;-91
2021/06/27 11:13:32;;;;;;;7.90;6.30;;;27.70;58.80;;;;;;5097360;28;20058;-90
2021/06/27 11:15:59;;;;;;;8.00;6.10;;;27.80;59.00;;;;;;5097111;28;20108;-88
2021/06/27 11:18:29;;;;;;;7.45;5.60;;;28.00;58.50;;;;;;5097645;28;20122;-90
2021/06/27 11:20:55;;;;;;;7.80;6.25;;;28.10;58.50;;;;;;5098250;28;20020;-90
2021/06/27 11:23:58;;;;;;;9.07;6.25;;;28.30;58.20;;;;;;5103849;28;20530;-88
2021/06/27 11:26:42;;;;;;;9.40;6.30;;;28.40;57.80;;;;;;5103503;28;20598;-89
2021/06/27 11:29:26;;;;;;;8.25;6.70;;;28.60;57.30;;;;;;5099177;28;20024;-89
2021/06/27 11:32:04;;;;;;;7.90;6.22;;;28.90;56.90;;;;;;5098484;28;20407;-88
2021/06/27 11:34:31;;;;;;;8.05;5.45;;;29.10;56.60;;;;;;5102504;28;20024;-88
2021/06/27 11:37:17;;;;;;;7.35;6.20;;;29.20;56.50;;;;;;5103346;28;20044;-86
2021/06/27 11:39:45;;;;;;;7.47;5.78;;;29.30;56.50;;;;;;5101404;28;20032;-88
2021/06/27 11:42:26;;;;;;;6.93;5.03;;;29.20;56.20;;;;;;5095970;28;20261;-86
2021/06/27 11:45:04;;;;;;;7.00;5.80;;;29.20;56.10;;;;;;5097068;28;20024;-87
2021/06/27 11:47:38;;;;;;;8.73;5.82;;;29.30;56.20;;;;;;5106144;28;20040;-86
2021/06/27 11:50:19;;;;;;;8.57;5.68;;;29.40;56.50;;;;;;5107910;28;20099;-85
2021/06/27 11:52:50;;;;;;;6.00;5.20;;;29.50;55.40;;;;;;5098387;28;20024;-87
2021/06/27 11:55:16;;;;;;;9.27;5.85;;;29.60;56.20;;;;;;5096758;28;20081;-85
2021/06/27 11:57:42;;;;;;;7.70;5.80;;;29.60;56.10;;;;;;5095387;28;20020;-84
2021/06/27 12:00:12;;;;;;;7.00;5.13;;;29.50;54.90;;;;;;5102462;28;20020;-83
2021/06/27 12:02:38;;;;;;;;;;;29.50;54.90;;;;;;5100109;28;20031;-86
2021/06/27 12:05:09;;;;;;;7.50;5.28;;;29.50;55.60;;;;;;5094988;28;19904;-82
2021/06/27 12:07:39;;;;;;;7.25;5.55;;;29.60;55.90;;;;;;5095987;28;20028;-80
2021/06/27 12:10:20;;;;;;;7.90;5.35;;;29.70;55.00;;;;;;5094429;28;20124;-81
2021/06/27 12:12:56;;;;;;;7.10;5.10;;;29.70;52.30;;;;;;5094572;28;20020;-80
2021/06/27 12:15:35;;;;;;;6.30;5.50;;;29.80;54.00;;;;;;5094152;28;20031;-79
2021/06/27 12:18:10;;;;;;;7.80;5.38;;;29.90;53.80;;;;;;5094500;28;20039;-78
2021/06/27 12:20:46;;;;;;;6.22;4.78;;;30.00;54.50;;;;;;5094563;28;20048;-79
2021/06/27 12:23:31;;;;;;;6.45;5.15;;;30.20;54.30;;;;;;5094037;28;20066;-78
2021/06/27 12:26:01;;;;;;;7.40;4.97;;;30.30;53.50;;;;;;5101048;28;20020;-79
2021/06/27 12:28:32;;;;;;;;;;;30.40;53.80;;;;;;5098746;28;20059;-79
2021/06/27 12:31:00;;;;;;;7.10;5.22;;;30.50;55.10;;;;;;5087242;28;19904;-80
2021/06/27 12:33:26;;;;;;;5.95;4.78;;;30.60;54.70;;;;;;5081374;28;20039;-78
2021/06/27 12:35:57;;;;;;;5.82;4.60;;;30.70;54.00;;;;;;5081127;28;20020;-81
2021/06/27 12:38:23;;;;;;;6.90;5.05;;;31.10;53.20;;;;;;5084552;28;20047;-78
2021/06/27 12:40:53;;;;;;;7.10;4.22;;;31.30;53.80;;;;;;5082761;28;20099;-81